Selebi Phikwe, Botswana
Current Conditions -  °F | °C
As of 8:00 AM on Thursday 23 Oct 2014 (Local Time) from FBFT Reporting Station
Clear Clear  
Wind Chill: 70°   Ceiling: Unl
Heat Index: 70°   Visibility: 6mi
Dew Point: 57°   Wind: 9mph
Humidity: 64%   Direction: 30°NNE
Pressure: 30.12"   Gusts: NA
Location:  22.06°S, 27.83°E
Report Text: FBFT 230600Z 03008KT CAVOK 21/14 Q1020
Loading
Personal Weather Stations






























Interactive Weather Map
Tropical Storm Tracking
New forecast layout! Learn more

10-Day Weather Forecast

Advertisements
Track Severe Weather on mobile